Delta Virtual Airport Information Service

Abbotsford International Airport

ICAO: CYXX Country: Canada
Latitude: 49.0253 Longitude: -122.36
Latest Arrival : UPS9567 (CYVR-CYXX) Latest Departure : WJA3306 (CYXX-CYYC)


WX CaptureLIVE
Data provided by noaa.gov | Fetched at 13:52:57

METAR : CYXX 281800Z 00000KT 30SM FEW150 16/11 A3036 RMK AC1 AC TR SLP283

TAF : CYXX 281738Z 2818/2918 02006KT P6SM FEW150 FEW210 FM291000 VRB03KT P6SM SKC PROB30 2910/2915 1/4SM FG VV002 RMK NXT FCST BY 290000Z


Runway Data for CYXX
Data provided by openaviationdata.com

Runway ID Mag Var Hdg Length Elevation Surface ILS Freq ILS Id ILS Slope
1 19 5260 ft 190 ft Asphalt -- -- --
7 19 66° 7988 ft 190 ft Asphalt 109.7 IXX 3
19 19 186° 5260 ft 190 ft Asphalt -- -- --
25 19 246° 7988 ft 190 ft Asphalt -- -- --

Abbotsford International Airport, Canada
Use only for reference purposes



Not for navigational purposes.